sensor_id;sensor_type;location;lat;lon;timestamp;pressure;altitude;pressure_sealevel;temperature;humidity
52343;BME280;38277;51.972;4.624;2023-03-14T00:04:26;98990.0;;;12.9;64.0
52343;BME280;38277;51.972;4.624;2023-03-14T00:09:37;99010.0;;;12.9;64.5
52343;BME280;38277;51.972;4.624;2023-03-14T00:13:14;99000.0;;;12.8;65.0
52343;BME280;38277;51.972;4.624;2023-03-14T00:17:57;99000.0;;;12.8;65.0
52343;BME280;38277;51.972;4.624;2023-03-14T00:22:10;99000.0;;;12.8;65.0
52343;BME280;38277;51.972;4.624;2023-03-14T00:27:00;99010.0;;;12.7;66.0
52343;BME280;38277;51.972;4.624;2023-03-14T00:35:55;99010.0;;;12.4;68.5
52343;BME280;38277;51.972;4.624;2023-03-14T00:40:19;99030.0;;;12.3;70.0
52343;BME280;38277;51.972;4.624;2023-03-14T00:44:37;99010.0;;;12.1;71.0
52343;BME280;38277;51.972;4.624;2023-03-14T00:53:41;99030.0;;;11.9;72.5
52343;BME280;38277;51.972;4.624;2023-03-14T00:58:08;99050.0;;;11.9;72.5
52343;BME280;38277;51.972;4.624;2023-03-14T01:02:53;99030.0;;;11.9;73.0
52343;BME280;38277;51.972;4.624;2023-03-14T01:07:32;99020.0;;;11.9;73.0
52343;BME280;38277;51.972;4.624;2023-03-14T01:11:38;99000.0;;;11.9;73.5
52343;BME280;38277;51.972;4.624;2023-03-14T01:16:12;99020.0;;;11.8;74.0
52343;BME280;38277;51.972;4.624;2023-03-14T01:20:36;99010.0;;;11.9;74.0
52343;BME280;38277;51.972;4.624;2023-03-14T01:29:38;99030.0;;;11.8;74.0
52343;BME280;38277;51.972;4.624;2023-03-14T01:34:18;99020.0;;;11.8;74.0
52343;BME280;38277;51.972;4.624;2023-03-14T01:38:59;99010.0;;;11.7;74.5
52343;BME280;38277;51.972;4.624;2023-03-14T01:43:16;99000.0;;;11.8;74.0
52343;BME280;38277;51.972;4.624;2023-03-14T01:47:55;99010.0;;;11.8;73.5
52343;BME280;38277;51.972;4.624;2023-03-14T01:56:40;99000.0;;;11.8;73.5
52343;BME280;38277;51.972;4.624;2023-03-14T02:05:44;99000.0;;;11.8;73.0
52343;BME280;38277;51.972;4.624;2023-03-14T02:10:54;99000.0;;;11.9;73.0
52343;BME280;38277;51.972;4.624;2023-03-14T02:14:59;98980.0;;;11.8;73.0
52343;BME280;38277;51.972;4.624;2023-03-14T02:19:14;98970.0;;;11.8;73.0
52343;BME280;38277;51.972;4.624;2023-03-14T02:23:51;98980.0;;;11.8;73.5
52343;BME280;38277;51.972;4.624;2023-03-14T02:28:31;98980.0;;;11.7;73.5
52343;BME280;38277;51.972;4.624;2023-03-14T02:32:39;98970.0;;;11.7;74.0
52343;BME280;38277;51.972;4.624;2023-03-14T02:38:06;98960.0;;;11.6;74.5
52343;BME280;38277;51.972;4.624;2023-03-14T02:41:55;98970.0;;;11.5;75.5
52343;BME280;38277;51.972;4.624;2023-03-14T02:46:24;98960.0;;;11.4;76.5
52343;BME280;38277;51.972;4.624;2023-03-14T02:50:59;98950.0;;;11.4;76.5
52343;BME280;38277;51.972;4.624;2023-03-14T02:55:08;98960.0;;;11.3;77.0
52343;BME280;38277;51.972;4.624;2023-03-14T02:59:57;98960.0;;;11.2;77.5
52343;BME280;38277;51.972;4.624;2023-03-14T03:04:05;98950.0;;;11.2;77.5
52343;BME280;38277;51.972;4.624;2023-03-14T03:08:44;98950.0;;;11.2;78.0
52343;BME280;38277;51.972;4.624;2023-03-14T03:14:17;98940.0;;;11.3;77.5
52343;BME280;38277;51.972;4.624;2023-03-14T03:17:51;98950.0;;;11.3;77.5
52343;BME280;38277;51.972;4.624;2023-03-14T03:22:04;98940.0;;;11.4;77.0
52343;BME280;38277;51.972;4.624;2023-03-14T03:27:22;98940.0;;;11.4;76.5
52343;BME280;38277;51.972;4.624;2023-03-14T03:31:10;98930.0;;;11.5;76.5
52343;BME280;38277;51.972;4.624;2023-03-14T03:36:26;98940.0;;;11.5;76.0
52343;BME280;38277;51.972;4.624;2023-03-14T03:41:09;98930.0;;;11.5;76.0
52343;BME280;38277;51.972;4.624;2023-03-14T03:45:26;98930.0;;;11.6;76.0
52343;BME280;38277;51.972;4.624;2023-03-14T03:49:06;98930.0;;;11.6;76.0
52343;BME280;38277;51.972;4.624;2023-03-14T03:53:33;98940.0;;;11.6;76.0
52343;BME280;38277;51.972;4.624;2023-03-14T03:58:16;98930.0;;;11.6;75.5
52343;BME280;38277;51.972;4.624;2023-03-14T04:03:27;98930.0;;;11.7;75.5
52343;BME280;38277;51.972;4.624;2023-03-14T04:07:09;98930.0;;;11.6;75.5
52343;BME280;38277;51.972;4.624;2023-03-14T04:11:55;98940.0;;;11.6;75.5
52343;BME280;38277;51.972;4.624;2023-03-14T04:16:24;98930.0;;;11.6;75.5
52343;BME280;38277;51.972;4.624;2023-03-14T04:20:41;98920.0;;;11.6;76.0
52343;BME280;38277;51.972;4.624;2023-03-14T04:25:20;98940.0;;;11.4;77.5
52343;BME280;38277;51.972;4.624;2023-03-14T04:29:41;98940.0;;;11.2;79.5
52343;BME280;38277;51.972;4.624;2023-03-14T04:34:22;98940.0;;;11.1;81.0
52343;BME280;38277;51.972;4.624;2023-03-14T04:43:11;98920.0;;;10.8;83.5
52343;BME280;38277;51.972;4.624;2023-03-14T04:48:00;98920.0;;;10.7;85.0
52343;BME280;38277;51.972;4.624;2023-03-14T04:52:13;98920.0;;;10.6;86.0
52343;BME280;38277;51.972;4.624;2023-03-14T04:56:33;98920.0;;;10.6;87.0
52343;BME280;38277;51.972;4.624;2023-03-14T05:05:46;98920.0;;;10.6;88.0
52343;BME280;38277;51.972;4.624;2023-03-14T05:10:08;98920.0;;;10.5;89.0
52343;BME280;38277;51.972;4.624;2023-03-14T05:32:38;98900.0;;;10.4;91.5
52343;BME280;38277;51.972;4.624;2023-03-14T05:41:41;98960.0;;;10.3;93.0
52343;BME280;38277;51.972;4.624;2023-03-14T05:46:22;98990.0;;;10.3;92.5
52343;BME280;38277;51.972;4.624;2023-03-14T05:50:45;99000.0;;;10.1;91.0
52343;BME280;38277;51.972;4.624;2023-03-14T06:00:06;99040.0;;;9.5;89.5
52343;BME280;38277;51.972;4.624;2023-03-14T06:04:29;99040.0;;;9.3;90.0
52343;BME280;38277;51.972;4.624;2023-03-14T06:08:47;99050.0;;;9.2;90.0
52343;BME280;38277;51.972;4.624;2023-03-14T06:17:59;99080.0;;;9.0;90.5
52343;BME280;38277;51.972;4.624;2023-03-14T06:22:13;99070.0;;;9.0;91.0
52343;BME280;38277;51.972;4.624;2023-03-14T06:28:03;99090.0;;;8.9;91.0
52343;BME280;38277;51.972;4.624;2023-03-14T06:40:29;99120.0;;;8.9;92.0
52343;BME280;38277;51.972;4.624;2023-03-14T06:44:36;99140.0;;;8.9;92.0
52343;BME280;38277;51.972;4.624;2023-03-14T06:53:34;99190.0;;;8.8;91.5
52343;BME280;38277;51.972;4.624;2023-03-14T06:58:03;99200.0;;;8.7;91.0
52343;BME280;38277;51.972;4.624;2023-03-14T07:03:27;99210.0;;;8.7;91.0
52343;BME280;38277;51.972;4.624;2023-03-14T07:07:11;99230.0;;;8.7;91.0
52343;BME280;38277;51.972;4.624;2023-03-14T07:12:01;99230.0;;;8.7;91.0
52343;BME280;38277;51.972;4.624;2023-03-14T07:16:27;99250.0;;;8.6;91.0
52343;BME280;38277;51.972;4.624;2023-03-14T07:21:37;99270.0;;;8.6;90.5
52343;BME280;38277;51.972;4.624;2023-03-14T07:25:05;99280.0;;;8.6;90.5
52343;BME280;38277;51.972;4.624;2023-03-14T07:30:03;99290.0;;;8.7;90.0
52343;BME280;38277;51.972;4.624;2023-03-14T07:34:10;99310.0;;;8.6;90.0
52343;BME280;38277;51.972;4.624;2023-03-14T07:38:34;99330.0;;;8.7;90.0
52343;BME280;38277;51.972;4.624;2023-03-14T07:43:32;99340.0;;;8.6;90.0
52343;BME280;38277;51.972;4.624;2023-03-14T07:47:38;99370.0;;;8.6;90.0
52343;BME280;38277;51.972;4.624;2023-03-14T07:52:31;99380.0;;;8.6;91.0
52343;BME280;38277;51.972;4.624;2023-03-14T07:57:30;99410.0;;;8.6;91.0
52343;BME280;38277;51.972;4.624;2023-03-14T08:01:22;99440.0;;;8.4;89.5
52343;BME280;38277;51.972;4.624;2023-03-14T08:06:03;99460.0;;;8.2;89.0
52343;BME280;38277;51.972;4.624;2023-03-14T08:10:10;99480.0;;;8.0;89.0
52343;BME280;38277;51.972;4.624;2023-03-14T08:14:33;99490.0;;;8.0;88.5
52343;BME280;38277;51.972;4.624;2023-03-14T08:19:17;99510.0;;;8.0;88.5
52343;BME280;38277;51.972;4.624;2023-03-14T08:24:02;99540.0;;;8.0;89.0
52343;BME280;38277;51.972;4.624;2023-03-14T08:28:26;99560.0;;;8.0;88.5
52343;BME280;38277;51.972;4.624;2023-03-14T08:32:38;99590.0;;;8.0;87.5
52343;BME280;38277;51.972;4.624;2023-03-14T08:37:25;99620.0;;;8.0;87.0
52343;BME280;38277;51.972;4.624;2023-03-14T08:41:41;99630.0;;;7.9;85.0
52343;BME280;38277;51.972;4.624;2023-03-14T08:46:31;99670.0;;;7.8;83.5
52343;BME280;38277;51.972;4.624;2023-03-14T08:50:34;99680.0;;;7.7;83.0
52343;BME280;38277;51.972;4.624;2023-03-14T08:55:20;99700.0;;;7.6;82.0
52343;BME280;38277;51.972;4.624;2023-03-14T08:59:58;99700.0;;;7.7;81.5
52343;BME280;38277;51.972;4.624;2023-03-14T09:04:23;99720.0;;;7.9;81.5
52343;BME280;38277;51.972;4.624;2023-03-14T09:08:42;99740.0;;;8.1;80.5
52343;BME280;38277;51.972;4.624;2023-03-14T09:17:45;99770.0;;;8.4;78.0
52343;BME280;38277;51.972;4.624;2023-03-14T09:22:10;99790.0;;;8.6;78.0
52343;BME280;38277;51.972;4.624;2023-03-14T09:26:48;99810.0;;;8.8;77.0
52343;BME280;38277;51.972;4.624;2023-03-14T09:31:11;99830.0;;;8.9;76.5
52343;BME280;38277;51.972;4.624;2023-03-14T09:36:42;99840.0;;;8.9;76.0
52343;BME280;38277;51.972;4.624;2023-03-14T09:40:19;99850.0;;;8.8;75.0
52343;BME280;38277;51.972;4.624;2023-03-14T09:45:03;99880.0;;;8.7;73.5
52343;BME280;38277;51.972;4.624;2023-03-14T09:49:10;99900.0;;;8.4;75.5
52343;BME280;38277;51.972;4.624;2023-03-14T09:53:55;99910.0;;;8.3;77.5
52343;BME280;38277;51.972;4.624;2023-03-14T09:58:24;99930.0;;;8.3;77.5
52343;BME280;38277;51.972;4.624;2023-03-14T10:02:56;99940.0;;;8.6;78.0
52343;BME280;38277;51.972;4.624;2023-03-14T10:07:10;99960.0;;;8.8;77.0
52343;BME280;38277;51.972;4.624;2023-03-14T10:11:43;99980.0;;;8.8;75.5
52343;BME280;38277;51.972;4.624;2023-03-14T10:16:32;100000.0;;;8.9;75.0
52343;BME280;38277;51.972;4.624;2023-03-14T10:20:49;100000.0;;;8.9;71.5
52343;BME280;38277;51.972;4.624;2023-03-14T10:25:27;100010.0;;;8.9;71.5
52343;BME280;38277;51.972;4.624;2023-03-14T10:29:56;100040.0;;;9.2;72.0
52343;BME280;38277;51.972;4.624;2023-03-14T10:34:26;100060.0;;;9.4;69.0
52343;BME280;38277;51.972;4.624;2023-03-14T10:38:39;100090.0;;;9.4;67.0
52343;BME280;38277;51.972;4.624;2023-03-14T10:47:59;100130.0;;;9.2;63.5
52343;BME280;38277;51.972;4.624;2023-03-14T10:52:24;100120.0;;;9.0;64.0
52343;BME280;38277;51.972;4.624;2023-03-14T10:56:57;100140.0;;;9.0;63.5
52343;BME280;38277;51.972;4.624;2023-03-14T11:01:46;100160.0;;;9.1;61.5
52343;BME280;38277;51.972;4.624;2023-03-14T11:06:23;100180.0;;;9.3;61.0
52343;BME280;38277;51.972;4.624;2023-03-14T11:10:37;100200.0;;;9.5;59.0
52343;BME280;38277;51.972;4.624;2023-03-14T11:15:05;100190.0;;;9.9;58.5
52343;BME280;38277;51.972;4.624;2023-03-14T11:19:27;100220.0;;;10.2;57.5
52343;BME280;38277;51.972;4.624;2023-03-14T11:23:41;100240.0;;;10.3;56.5
52343;BME280;38277;51.972;4.624;2023-03-14T11:28:29;100250.0;;;10.4;57.5
52343;BME280;38277;51.972;4.624;2023-03-14T11:32:59;100270.0;;;11.6;53.0
52343;BME280;38277;51.972;4.624;2023-03-14T11:37:17;100270.0;;;14.2;47.0
52343;BME280;38277;51.972;4.624;2023-03-14T11:41:51;100270.0;;;16.5;39.5
52343;BME280;38277;51.972;4.624;2023-03-14T11:46:14;100290.0;;;17.7;36.5
52343;BME280;38277;51.972;4.624;2023-03-14T11:50:41;100300.0;;;18.8;34.5
52343;BME280;38277;51.972;4.624;2023-03-14T11:59:52;100310.0;;;20.2;30.5
52343;BME280;38277;51.972;4.624;2023-03-14T12:04:29;100340.0;;;20.1;31.0
52343;BME280;38277;51.972;4.624;2023-03-14T12:08:49;100340.0;;;20.1;26.0
52343;BME280;38277;51.972;4.624;2023-03-14T12:13:18;100360.0;;;19.4;28.0
52343;BME280;38277;51.972;4.624;2023-03-14T12:18:33;100350.0;;;18.0;30.0
52343;BME280;38277;51.972;4.624;2023-03-14T12:22:23;100360.0;;;17.0;30.0
52343;BME280;38277;51.972;4.624;2023-03-14T12:26:58;100380.0;;;16.4;32.0
52343;BME280;38277;51.972;4.624;2023-03-14T12:31:46;100390.0;;;15.5;32.0
52343;BME280;38277;51.972;4.624;2023-03-14T12:36:51;100390.0;;;15.8;33.0
52343;BME280;38277;51.972;4.624;2023-03-14T12:40:17;100390.0;;;16.9;31.0
52343;BME280;38277;51.972;4.624;2023-03-14T12:44:45;100400.0;;;17.5;32.0
52343;BME280;38277;51.972;4.624;2023-03-14T12:49:15;100420.0;;;17.8;31.5
52343;BME280;38277;51.972;4.624;2023-03-14T12:54:21;100420.0;;;19.0;29.0
52343;BME280;38277;51.972;4.624;2023-03-14T12:58:28;100430.0;;;20.6;26.0
52343;BME280;38277;51.972;4.624;2023-03-14T13:02:49;100430.0;;;21.5;24.5
52343;BME280;38277;51.972;4.624;2023-03-14T13:08:02;100450.0;;;22.5;21.0
52343;BME280;38277;51.972;4.624;2023-03-14T13:12:00;100460.0;;;23.2;21.5
52343;BME280;38277;51.972;4.624;2023-03-14T13:16:16;100480.0;;;23.2;21.0
52343;BME280;38277;51.972;4.624;2023-03-14T13:21:01;100500.0;;;22.6;22.0
52343;BME280;38277;51.972;4.624;2023-03-14T13:25:10;100510.0;;;22.4;22.0
52343;BME280;38277;51.972;4.624;2023-03-14T13:29:50;100530.0;;;21.4;22.0
52343;BME280;38277;51.972;4.624;2023-03-14T13:34:25;100550.0;;;19.7;23.0
52343;BME280;38277;51.972;4.624;2023-03-14T13:38:56;100560.0;;;17.4;26.0
52343;BME280;38277;51.972;4.624;2023-03-14T13:43:25;100570.0;;;15.8;29.0
52343;BME280;38277;51.972;4.624;2023-03-14T13:48:30;100570.0;;;14.6;29.5
52343;BME280;38277;51.972;4.624;2023-03-14T13:52:28;100590.0;;;13.6;31.5
52343;BME280;38277;51.972;4.624;2023-03-14T13:56:40;100590.0;;;13.0;32.5
52343;BME280;38277;51.972;4.624;2023-03-14T14:01:30;100600.0;;;12.5;33.5
52343;BME280;38277;51.972;4.624;2023-03-14T14:06:46;100620.0;;;12.3;33.5
52343;BME280;38277;51.972;4.624;2023-03-14T14:10:20;100630.0;;;11.8;34.5
52343;BME280;38277;51.972;4.624;2023-03-14T14:15:02;100630.0;;;11.1;35.5
52343;BME280;38277;51.972;4.624;2023-03-14T14:19:31;100650.0;;;10.6;37.5
52343;BME280;38277;51.972;4.624;2023-03-14T14:23:53;100670.0;;;10.2;39.0
52343;BME280;38277;51.972;4.624;2023-03-14T14:28:15;100680.0;;;10.0;39.0
52343;BME280;38277;51.972;4.624;2023-03-14T14:32:49;100690.0;;;9.9;39.0
52343;BME280;38277;51.972;4.624;2023-03-14T14:37:22;100720.0;;;9.8;39.0
52343;BME280;38277;51.972;4.624;2023-03-14T14:41:57;100720.0;;;9.8;39.0
52343;BME280;38277;51.972;4.624;2023-03-14T14:46:21;100720.0;;;10.0;39.5
52343;BME280;38277;51.972;4.624;2023-03-14T14:50:55;100730.0;;;10.1;38.0
52343;BME280;38277;51.972;4.624;2023-03-14T14:55:39;100740.0;;;10.2;37.5
52343;BME280;38277;51.972;4.624;2023-03-14T14:59:42;100760.0;;;10.6;38.0
52343;BME280;38277;51.972;4.624;2023-03-14T15:04:14;100770.0;;;10.8;37.5
52343;BME280;38277;51.972;4.624;2023-03-14T15:08:58;100780.0;;;10.6;37.5
52343;BME280;38277;51.972;4.624;2023-03-14T15:13:06;100780.0;;;10.4;38.0
52343;BME280;38277;51.972;4.624;2023-03-14T15:17:50;100790.0;;;10.5;38.5
52343;BME280;38277;51.972;4.624;2023-03-14T15:22:21;100810.0;;;10.6;38.5
52343;BME280;38277;51.972;4.624;2023-03-14T15:26:59;100810.0;;;10.6;38.0
52343;BME280;38277;51.972;4.624;2023-03-14T15:31:24;100820.0;;;10.7;38.0
52343;BME280;38277;51.972;4.624;2023-03-14T15:35:58;100830.0;;;10.7;36.0
52343;BME280;38277;51.972;4.624;2023-03-14T15:40:12;100830.0;;;10.5;34.5
52343;BME280;38277;51.972;4.624;2023-03-14T15:44:34;100840.0;;;10.4;36.0
52343;BME280;38277;51.972;4.624;2023-03-14T15:49:16;100850.0;;;10.8;36.0
52343;BME280;38277;51.972;4.624;2023-03-14T15:54:26;100860.0;;;10.8;37.0
52343;BME280;38277;51.972;4.624;2023-03-14T15:58:25;100870.0;;;11.0;36.5
52343;BME280;38277;51.972;4.624;2023-03-14T16:02:50;100870.0;;;11.0;36.0
52343;BME280;38277;51.972;4.624;2023-03-14T16:07:10;100870.0;;;10.8;36.5
52343;BME280;38277;51.972;4.624;2023-03-14T16:11:37;100880.0;;;10.4;37.5
52343;BME280;38277;51.972;4.624;2023-03-14T16:16:29;100890.0;;;10.0;39.0
52343;BME280;38277;51.972;4.624;2023-03-14T16:25:13;100910.0;;;9.6;41.0
52343;BME280;38277;51.972;4.624;2023-03-14T16:29:47;100910.0;;;9.6;40.0
52343;BME280;38277;51.972;4.624;2023-03-14T16:34:09;100920.0;;;9.6;39.5
52343;BME280;38277;51.972;4.624;2023-03-14T16:38:43;100920.0;;;9.7;39.0
52343;BME280;38277;51.972;4.624;2023-03-14T16:43:16;100940.0;;;9.5;40.0
52343;BME280;38277;51.972;4.624;2023-03-14T16:47:39;100940.0;;;9.4;41.0
52343;BME280;38277;51.972;4.624;2023-03-14T16:52:29;100950.0;;;9.3;42.0
52343;BME280;38277;51.972;4.624;2023-03-14T17:01:32;100970.0;;;9.6;43.0
52343;BME280;38277;51.972;4.624;2023-03-14T17:05:44;100970.0;;;9.5;43.0
52343;BME280;38277;51.972;4.624;2023-03-14T17:10:30;100990.0;;;9.3;42.5
52343;BME280;38277;51.972;4.624;2023-03-14T17:14:54;101000.0;;;9.1;42.0
52343;BME280;38277;51.972;4.624;2023-03-14T17:19:14;101010.0;;;8.8;41.5
52343;BME280;38277;51.972;4.624;2023-03-14T17:23:36;101010.0;;;8.5;41.0
52343;BME280;38277;51.972;4.624;2023-03-14T17:28:26;101020.0;;;8.2;42.0
52343;BME280;38277;51.972;4.624;2023-03-14T17:37:06;101040.0;;;7.9;43.0
52343;BME280;38277;51.972;4.624;2023-03-14T17:41:45;101050.0;;;7.7;44.0
52343;BME280;38277;51.972;4.624;2023-03-14T17:46:14;101050.0;;;7.6;44.5
52343;BME280;38277;51.972;4.624;2023-03-14T17:50:49;101060.0;;;7.5;45.0
52343;BME280;38277;51.972;4.624;2023-03-14T17:55:24;101070.0;;;7.3;46.0
52343;BME280;38277;51.972;4.624;2023-03-14T17:59:57;101080.0;;;7.2;46.0
52343;BME280;38277;51.972;4.624;2023-03-14T18:04:05;101090.0;;;7.2;46.0
52343;BME280;38277;51.972;4.624;2023-03-14T18:13:04;101110.0;;;7.0;46.5
52343;BME280;38277;51.972;4.624;2023-03-14T18:17:45;101100.0;;;6.9;46.5
52343;BME280;38277;51.972;4.624;2023-03-14T18:22:26;101110.0;;;6.8;47.0
52343;BME280;38277;51.972;4.624;2023-03-14T18:31:09;101110.0;;;6.7;47.5
52343;BME280;38277;51.972;4.624;2023-03-14T18:35:35;101120.0;;;6.6;48.5
52343;BME280;38277;51.972;4.624;2023-03-14T18:40:21;101120.0;;;6.6;48.5
52343;BME280;38277;51.972;4.624;2023-03-14T18:49:14;101140.0;;;6.5;48.5
52343;BME280;38277;51.972;4.624;2023-03-14T18:53:38;101140.0;;;6.4;48.5
52343;BME280;38277;51.972;4.624;2023-03-14T18:58:29;101140.0;;;6.4;49.0
52343;BME280;38277;51.972;4.624;2023-03-14T19:02:56;101140.0;;;6.4;49.0
52343;BME280;38277;51.972;4.624;2023-03-14T19:07:24;101140.0;;;6.4;49.5
52343;BME280;38277;51.972;4.624;2023-03-14T19:11:52;101140.0;;;6.4;49.5
52343;BME280;38277;51.972;4.624;2023-03-14T19:16:28;101130.0;;;6.3;49.5
52343;BME280;38277;51.972;4.624;2023-03-14T19:25:15;101130.0;;;6.3;50.0
52343;BME280;38277;51.972;4.624;2023-03-14T19:29:38;101130.0;;;6.3;50.5
52343;BME280;38277;51.972;4.624;2023-03-14T19:34:20;101130.0;;;6.4;50.5
52343;BME280;38277;51.972;4.624;2023-03-14T19:38:47;101150.0;;;6.4;50.5
52343;BME280;38277;51.972;4.624;2023-03-14T19:43:10;101140.0;;;6.5;51.0
52343;BME280;38277;51.972;4.624;2023-03-14T19:47:36;101150.0;;;6.6;51.5
52343;BME280;38277;51.972;4.624;2023-03-14T19:52:14;101180.0;;;6.8;52.0
52343;BME280;38277;51.972;4.624;2023-03-14T20:01:29;101160.0;;;6.8;54.5
52343;BME280;38277;51.972;4.624;2023-03-14T20:06:03;101150.0;;;6.8;55.0
52343;BME280;38277;51.972;4.624;2023-03-14T20:10:16;101170.0;;;6.9;55.5
52343;BME280;38277;51.972;4.624;2023-03-14T20:14:49;101170.0;;;7.0;55.5
52343;BME280;38277;51.972;4.624;2023-03-14T20:19:27;101180.0;;;7.0;55.0
52343;BME280;38277;51.972;4.624;2023-03-14T20:23:40;101190.0;;;7.0;55.0
52343;BME280;38277;51.972;4.624;2023-03-14T20:28:09;101200.0;;;7.0;55.0
52343;BME280;38277;51.972;4.624;2023-03-14T20:37:26;101210.0;;;7.1;55.5
52343;BME280;38277;51.972;4.624;2023-03-14T20:41:33;101200.0;;;7.2;56.0
52343;BME280;38277;51.972;4.624;2023-03-14T20:50:33;101210.0;;;7.2;57.0
52343;BME280;38277;51.972;4.624;2023-03-14T20:55:24;101210.0;;;7.1;57.0
52343;BME280;38277;51.972;4.624;2023-03-14T20:59:39;101220.0;;;7.1;58.5
52343;BME280;38277;51.972;4.624;2023-03-14T21:04:06;101220.0;;;7.0;60.0
52343;BME280;38277;51.972;4.624;2023-03-14T21:13:24;101230.0;;;7.0;61.5
52343;BME280;38277;51.972;4.624;2023-03-14T21:17:41;101210.0;;;7.1;62.0
52343;BME280;38277;51.972;4.624;2023-03-14T21:22:20;101220.0;;;7.1;62.5
52343;BME280;38277;51.972;4.624;2023-03-14T21:31:28;101230.0;;;7.3;62.0
52343;BME280;38277;51.972;4.624;2023-03-14T21:36:01;101240.0;;;7.3;58.0
52343;BME280;38277;51.972;4.624;2023-03-14T21:40:05;101250.0;;;7.3;56.0
52343;BME280;38277;51.972;4.624;2023-03-14T21:49:26;101320.0;;;6.8;63.5
52343;BME280;38277;51.972;4.624;2023-03-14T21:54:00;101350.0;;;6.1;67.5
52343;BME280;38277;51.972;4.624;2023-03-14T21:58:28;101340.0;;;5.4;70.0
52343;BME280;38277;51.972;4.624;2023-03-14T22:07:31;101350.0;;;4.7;74.5
52343;BME280;38277;51.972;4.624;2023-03-14T22:11:43;101350.0;;;4.5;75.5
52343;BME280;38277;51.972;4.624;2023-03-14T22:16:27;101350.0;;;4.3;77.0
52343;BME280;38277;51.972;4.624;2023-03-14T22:25:03;101350.0;;;4.1;78.5
52343;BME280;38277;51.972;4.624;2023-03-14T22:29:44;101350.0;;;4.1;79.5
52343;BME280;38277;51.972;4.624;2023-03-14T22:34:27;101350.0;;;4.1;80.0
52343;BME280;38277;51.972;4.624;2023-03-14T22:38:38;101350.0;;;4.2;81.5
52343;BME280;38277;51.972;4.624;2023-03-14T22:43:08;101340.0;;;4.3;82.5
52343;BME280;38277;51.972;4.624;2023-03-14T22:47:39;101350.0;;;4.4;83.0
52343;BME280;38277;51.972;4.624;2023-03-14T22:52:16;101340.0;;;4.4;83.0
52343;BME280;38277;51.972;4.624;2023-03-14T22:56:52;101350.0;;;4.5;83.5
52343;BME280;38277;51.972;4.624;2023-03-14T23:01:04;101350.0;;;4.5;83.5
52343;BME280;38277;51.972;4.624;2023-03-14T23:05:34;101350.0;;;4.5;83.5
52343;BME280;38277;51.972;4.624;2023-03-14T23:14:39;101360.0;;;4.5;84.0
52343;BME280;38277;51.972;4.624;2023-03-14T23:19:20;101360.0;;;4.6;84.0
52343;BME280;38277;51.972;4.624;2023-03-14T23:23:44;101350.0;;;4.6;84.0
52343;BME280;38277;51.972;4.624;2023-03-14T23:28:23;101350.0;;;4.6;84.5
52343;BME280;38277;51.972;4.624;2023-03-14T23:32:37;101370.0;;;4.6;84.5
52343;BME280;38277;51.972;4.624;2023-03-14T23:37:08;101380.0;;;4.8;84.5
52343;BME280;38277;51.972;4.624;2023-03-14T23:41:42;101370.0;;;4.8;84.5
52343;BME280;38277;51.972;4.624;2023-03-14T23:51:47;101370.0;;;4.8;84.0
52343;BME280;38277;51.972;4.624;2023-03-14T23:55:24;101360.0;;;4.8;83.5
52343;BME280;38277;51.972;4.624;2023-03-14T23:59:44;101370.0;;;4.8;83.5
